createdAt,value
2022-11-11T00:00:07.765Z,10.20
2022-11-11T00:02:57.921Z,10.16
2022-11-11T00:05:46.555Z,10.18
2022-11-11T00:08:35.627Z,10.18
2022-11-11T00:11:24.476Z,10.14
2022-11-11T00:14:12.949Z,10.16
2022-11-11T00:17:19.490Z,10.13
2022-11-11T00:20:27.900Z,10.15
2022-11-11T00:23:35.818Z,10.18
2022-11-11T00:26:39.171Z,10.11
2022-11-11T00:29:16.253Z,10.14
2022-11-11T00:32:23.897Z,10.12
2022-11-11T00:35:30.766Z,10.06
2022-11-11T00:38:24.879Z,10.08
2022-11-11T00:41:15.197Z,10.08
2022-11-11T00:44:04.272Z,10.09
2022-11-11T00:47:10.844Z,10.03
2022-11-11T00:50:17.370Z,9.99
2022-11-11T00:53:07.428Z,9.95
2022-11-11T00:55:56.593Z,9.91
2022-11-11T00:58:45.253Z,9.93
2022-11-11T01:01:37.703Z,9.89
2022-11-11T01:04:26.744Z,9.84
2022-11-11T01:07:15.065Z,9.82
2022-11-11T01:10:04.733Z,9.81
2022-11-11T01:12:57.946Z,9.84
2022-11-11T01:15:47.952Z,9.78
2022-11-11T01:18:36.780Z,9.80
2022-11-11T01:21:26.106Z,9.79
2022-11-11T01:24:15.297Z,9.79
2022-11-11T01:27:04.129Z,9.75
2022-11-11T01:29:53.491Z,9.78
2022-11-11T01:32:43.254Z,9.82
2022-11-11T01:35:32.179Z,9.80
2022-11-11T01:38:21.311Z,9.82
2022-11-11T01:41:29.477Z,9.81
2022-11-11T01:44:22.281Z,9.81
2022-11-11T01:47:11.502Z,9.81
2022-11-11T01:50:01.637Z,9.83
2022-11-11T01:52:50.244Z,9.93
2022-11-11T01:55:38.836Z,9.88
2022-11-11T01:58:27.580Z,9.92
2022-11-11T02:01:17.712Z,9.97
2022-11-11T02:04:25.275Z,9.97
2022-11-11T02:07:14.817Z,10.12
2022-11-11T02:10:05.102Z,9.96
2022-11-11T02:13:11.696Z,9.95
2022-11-11T02:16:01.432Z,9.89
2022-11-11T02:18:50.375Z,9.90
2022-11-11T02:21:40.870Z,9.92
2022-11-11T02:24:31.430Z,9.89
2022-11-11T02:27:20.707Z,9.81
2022-11-11T02:30:11.859Z,9.82
2022-11-11T02:33:00.219Z,9.83
2022-11-11T02:35:59.258Z,9.83
2022-11-11T02:38:48.100Z,9.82
2022-11-11T02:41:54.623Z,9.82
2022-11-11T02:44:43.408Z,9.84
2022-11-11T02:47:32.842Z,9.81
2022-11-11T02:50:21.926Z,9.81
2022-11-11T02:53:10.893Z,9.81
2022-11-11T02:55:59.413Z,9.81
2022-11-11T02:58:48.122Z,9.81
2022-11-11T03:01:36.713Z,9.84
2022-11-11T03:04:25.756Z,9.84
2022-11-11T03:07:14.842Z,9.84
2022-11-11T03:10:03.520Z,9.80
2022-11-11T03:12:52.357Z,9.80
2022-11-11T03:15:40.864Z,9.84
2022-11-11T03:18:29.763Z,9.81
2022-11-11T03:22:32.058Z,9.87
2022-11-11T03:24:09.880Z,9.84
2022-11-11T03:26:58.693Z,9.81
2022-11-11T03:29:47.429Z,9.78
2022-11-11T03:32:35.705Z,9.75
2022-11-11T03:35:24.686Z,9.82
2022-11-11T03:38:18.720Z,9.74
2022-11-11T03:41:02.565Z,9.76
2022-11-11T03:43:51.461Z,9.81
2022-11-11T03:46:40.673Z,9.82
2022-11-11T03:49:29.300Z,9.81
2022-11-11T03:52:18.157Z,9.82
2022-11-11T03:55:07.337Z,9.83
2022-11-11T03:57:56.354Z,9.84
2022-11-11T04:00:45.342Z,9.84
2022-11-11T04:03:51.928Z,9.92
2022-11-11T04:06:58.661Z,9.93
2022-11-11T04:10:05.014Z,9.92
2022-11-11T04:13:12.435Z,9.90
2022-11-11T04:16:06.877Z,9.93
2022-11-11T04:19:13.533Z,9.93
2022-11-11T04:22:03.124Z,9.95
2022-11-11T04:25:09.665Z,9.97
2022-11-11T04:28:16.633Z,10.01
2022-11-11T04:31:05.577Z,9.99
2022-11-11T04:33:54.451Z,10.03
2022-11-11T04:36:43.421Z,10.13
2022-11-11T04:39:50.230Z,10.17
2022-11-11T04:42:42.222Z,10.22
2022-11-11T04:45:35.557Z,10.18
2022-11-11T04:48:24.535Z,10.22
2022-11-11T04:51:13.218Z,10.18
2022-11-11T04:54:01.829Z,10.14
2022-11-11T04:56:51.050Z,10.11
2022-11-11T04:59:40.322Z,10.14
2022-11-11T05:02:46.877Z,10.16
2022-11-11T05:05:36.923Z,10.10
2022-11-11T05:08:43.100Z,10.09
2022-11-11T05:11:37.727Z,10.07
2022-11-11T05:14:44.161Z,10.07
2022-11-11T05:17:50.857Z,10.07
2022-11-11T05:20:57.774Z,10.14
2022-11-11T05:24:04.179Z,10.14
2022-11-11T05:26:52.625Z,10.14
2022-11-11T05:29:41.364Z,10.16
2022-11-11T05:32:32.206Z,10.18
2022-11-11T05:35:21.301Z,10.11
2022-11-11T05:38:22.129Z,10.27
2022-11-11T05:41:11.049Z,10.13
2022-11-11T05:44:00.053Z,10.12
2022-11-11T05:46:48.944Z,10.20
2022-11-11T05:49:37.550Z,10.20
2022-11-11T05:52:26.051Z,10.22
2022-11-11T05:55:14.741Z,10.27
2022-11-11T05:58:03.759Z,10.29
2022-11-11T06:00:53.063Z,10.35
2022-11-11T06:03:41.737Z,10.39
2022-11-11T06:06:32.247Z,10.40
2022-11-11T06:09:21.727Z,10.43
2022-11-11T06:12:10.679Z,10.53
2022-11-11T06:14:59.648Z,10.53
2022-11-11T06:17:48.262Z,10.56
2022-11-11T06:20:37.215Z,10.59
2022-11-11T06:23:26.816Z,10.68
2022-11-11T06:26:16.932Z,10.67
2022-11-11T06:29:06.090Z,10.69
2022-11-11T06:31:55.526Z,10.83
2022-11-11T06:34:44.205Z,10.76
2022-11-11T06:37:32.927Z,10.68
2022-11-11T06:40:22.088Z,10.70
2022-11-11T06:43:11.708Z,10.67
2022-11-11T06:46:00.577Z,10.65
2022-11-11T06:48:50.031Z,10.61
2022-11-11T06:51:38.917Z,10.68
2022-11-11T06:54:28.319Z,10.73
2022-11-11T06:57:17.866Z,10.78
2022-11-11T07:00:09.302Z,10.84
2022-11-11T07:02:58.092Z,10.92
2022-11-11T07:05:47.845Z,10.96
2022-11-11T07:08:36.648Z,11.03
2022-11-11T07:11:25.629Z,11.08
2022-11-11T07:14:15.251Z,11.11
2022-11-11T07:17:06.387Z,11.05
2022-11-11T07:19:54.564Z,10.98
2022-11-11T07:22:43.462Z,10.90
2022-11-11T07:25:32.443Z,10.86
2022-11-11T07:28:21.874Z,10.79
2022-11-11T07:31:10.454Z,10.91
2022-11-11T07:33:59.256Z,10.87
2022-11-11T07:36:48.425Z,10.82
2022-11-11T07:39:37.546Z,10.86
2022-11-11T07:42:31.294Z,11.00
2022-11-11T07:45:17.048Z,11.00
2022-11-11T07:48:05.895Z,11.00
2022-11-11T07:50:58.006Z,11.00
2022-11-11T07:53:47.153Z,10.94
2022-11-11T07:56:36.163Z,10.86
2022-11-11T07:59:25.375Z,10.98
2022-11-11T08:02:15.082Z,10.99
2022-11-11T08:05:03.917Z,10.91
2022-11-11T08:07:52.739Z,10.95
2022-11-11T08:10:41.575Z,10.87
2022-11-11T08:13:42.393Z,10.88
2022-11-11T08:16:31.044Z,10.86
2022-11-11T08:19:19.894Z,11.02
2022-11-11T08:22:08.482Z,10.97
2022-11-11T08:25:03.608Z,11.03
2022-11-11T08:27:48.037Z,11.00
2022-11-11T08:30:36.875Z,11.08
2022-11-11T08:33:34.630Z,11.02
2022-11-11T08:36:20.497Z,10.98
2022-11-11T08:39:06.807Z,11.03
2022-11-11T08:41:56.084Z,11.02
2022-11-11T08:44:45.203Z,11.18
2022-11-11T08:47:33.994Z,11.15
2022-11-11T08:50:22.612Z,11.18
2022-11-11T08:53:11.790Z,11.22
2022-11-11T08:56:03.050Z,11.27
2022-11-11T08:58:52.014Z,11.28
2022-11-11T09:01:40.901Z,11.29
2022-11-11T09:04:44.101Z,11.32
2022-11-11T09:07:20.569Z,11.38
2022-11-11T09:10:09.914Z,11.39
2022-11-11T09:12:59.501Z,11.36
2022-11-11T09:15:47.920Z,11.31
2022-11-11T09:18:38.045Z,11.39
2022-11-11T09:21:26.843Z,11.47
2022-11-11T09:24:15.845Z,11.40
2022-11-11T09:27:04.554Z,11.42
2022-11-11T09:29:53.246Z,11.44
2022-11-11T09:32:41.947Z,11.49
2022-11-11T09:35:30.678Z,11.48
2022-11-11T09:38:19.461Z,11.49
2022-11-11T09:41:15.939Z,11.49
2022-11-11T09:44:05.106Z,11.59
2022-11-11T09:46:58.053Z,11.59
2022-11-11T09:49:47.850Z,11.65
2022-11-11T09:52:44.340Z,11.69
2022-11-11T09:55:34.569Z,11.80
2022-11-11T09:58:24.916Z,11.71
2022-11-11T10:01:15.368Z,11.75
2022-11-11T10:04:09.291Z,11.74
2022-11-11T10:07:02.389Z,11.77
2022-11-11T10:09:52.502Z,11.81
2022-11-11T10:12:44.259Z,11.80
2022-11-11T10:15:34.260Z,11.85
2022-11-11T10:18:24.526Z,11.88
2022-11-11T10:21:15.121Z,11.85
2022-11-11T10:24:06.265Z,11.86
2022-11-11T10:26:55.742Z,11.81
2022-11-11T10:29:45.529Z,11.85
2022-11-11T10:32:36.181Z,11.77
2022-11-11T10:35:26.718Z,11.72
2022-11-11T10:38:20.088Z,11.75
2022-11-11T10:41:16.342Z,11.72
2022-11-11T10:44:06.618Z,11.65
2022-11-11T10:47:00.150Z,11.65
2022-11-11T10:49:50.199Z,11.61
2022-11-11T10:52:40.988Z,11.53
2022-11-11T10:55:31.167Z,11.39
2022-11-11T10:58:30.579Z,11.30
2022-11-11T11:01:20.797Z,11.37
2022-11-11T11:04:10.633Z,11.28
2022-11-11T11:07:00.957Z,11.23
2022-11-11T11:09:52.025Z,11.23
2022-11-11T11:12:46.141Z,11.22
2022-11-11T11:15:36.239Z,11.20
2022-11-11T11:18:25.625Z,11.22
2022-11-11T11:21:15.143Z,11.33
2022-11-11T11:24:04.365Z,11.32
2022-11-11T11:26:54.603Z,11.29
2022-11-11T11:29:44.653Z,11.27
2022-11-11T11:32:34.471Z,11.34
2022-11-11T11:35:34.046Z,11.25
2022-11-11T11:38:24.919Z,11.25
2022-11-11T11:41:14.122Z,11.23
2022-11-11T11:44:02.782Z,11.24
2022-11-11T11:46:53.153Z,11.24
2022-11-11T11:49:59.857Z,11.28
2022-11-11T11:52:59.109Z,11.11
2022-11-11T11:55:49.927Z,11.07
2022-11-11T11:58:42.695Z,11.10
2022-11-11T12:01:32.024Z,11.00
2022-11-11T12:04:28.019Z,10.96
2022-11-11T12:07:18.283Z,10.94
2022-11-11T12:10:11.503Z,10.85
2022-11-11T12:13:07.731Z,10.81
2022-11-11T12:16:00.995Z,10.87
2022-11-11T12:18:54.147Z,10.89
2022-11-11T12:21:44.150Z,10.73
2022-11-11T12:24:49.651Z,10.69
2022-11-11T12:27:52.353Z,10.72
2022-11-11T12:30:42.491Z,10.86
2022-11-11T12:33:35.528Z,10.81
2022-11-11T12:36:40.613Z,10.85
2022-11-11T12:39:30.794Z,10.89
2022-11-11T12:42:33.468Z,10.98
2022-11-11T12:45:26.815Z,10.96
2022-11-11T12:48:22.986Z,10.91
2022-11-11T12:51:12.782Z,10.89
2022-11-11T12:54:05.854Z,10.98
2022-11-11T12:57:02.216Z,10.93
2022-11-11T12:59:55.482Z,10.91
2022-11-11T13:02:45.955Z,10.86
2022-11-11T13:05:42.590Z,10.86
2022-11-11T13:08:35.994Z,10.76
2022-11-11T13:11:38.334Z,10.70
2022-11-11T13:14:31.371Z,10.76
2022-11-11T13:17:20.274Z,10.73
2022-11-11T13:20:16.484Z,10.71
2022-11-11T13:23:06.925Z,10.62
2022-11-11T13:26:01.477Z,10.70
2022-11-11T13:28:49.047Z,10.75
2022-11-11T13:31:39.356Z,10.76
2022-11-11T13:34:28.730Z,10.65
2022-11-11T13:37:22.088Z,10.61
2022-11-11T13:40:12.132Z,10.68
2022-11-11T13:43:01.450Z,10.68
2022-11-11T13:45:54.819Z,10.78
2022-11-11T13:48:48.070Z,10.79
2022-11-11T13:51:41.357Z,10.86
2022-11-11T13:54:35.072Z,10.78
2022-11-11T13:57:27.247Z,10.72
2022-11-11T14:00:21.852Z,10.78
2022-11-11T14:03:15.017Z,10.76
2022-11-11T14:06:17.508Z,10.75
2022-11-11T14:09:07.563Z,10.80
2022-11-11T14:11:57.905Z,10.69
2022-11-11T14:14:50.451Z,10.77
2022-11-11T14:17:40.239Z,10.75
2022-11-11T14:20:39.397Z,10.75
2022-11-11T14:23:29.215Z,10.78
2022-11-11T14:26:19.381Z,10.87
2022-11-11T14:29:09.194Z,10.85
2022-11-11T14:31:59.729Z,10.89
2022-11-11T14:35:05.103Z,10.89
2022-11-11T14:37:55.520Z,10.96
2022-11-11T14:40:44.453Z,10.94
2022-11-11T14:43:35.014Z,10.98
2022-11-11T14:46:23.638Z,11.03
2022-11-11T14:49:12.611Z,11.00
2022-11-11T14:52:03.404Z,11.11
2022-11-11T14:54:53.767Z,11.07
2022-11-11T14:57:47.152Z,11.14
2022-11-11T15:00:52.276Z,11.18
2022-11-11T15:03:42.155Z,11.18
2022-11-11T15:06:35.670Z,11.22
2022-11-11T15:09:35.269Z,11.24
2022-11-11T15:12:25.480Z,11.27
2022-11-11T15:15:21.466Z,11.34
2022-11-11T15:18:28.037Z,11.29
2022-11-11T15:21:21.464Z,11.30
2022-11-11T15:24:18.987Z,11.29
2022-11-11T15:27:18.099Z,11.31
2022-11-11T15:30:17.065Z,11.35
2022-11-11T15:33:24.056Z,11.30
2022-11-11T15:36:17.163Z,11.29
2022-11-11T15:39:07.386Z,11.29
2022-11-11T15:41:56.401Z,11.29
2022-11-11T15:44:45.104Z,11.31
2022-11-11T15:47:35.966Z,11.24
2022-11-11T15:50:28.841Z,11.27
2022-11-11T15:53:18.861Z,11.23
2022-11-11T15:56:07.894Z,11.21
2022-11-11T15:58:56.600Z,11.21
2022-11-11T16:01:45.536Z,11.20
2022-11-11T16:04:54.904Z,11.14
2022-11-11T16:07:26.078Z,11.20
2022-11-11T16:10:17.123Z,11.17
2022-11-11T16:13:10.108Z,11.24
2022-11-11T16:16:00.346Z,11.20
2022-11-11T16:18:53.532Z,11.24
2022-11-11T16:21:43.829Z,11.23
2022-11-11T16:24:33.898Z,11.25
2022-11-11T16:27:24.322Z,11.26
2022-11-11T16:30:17.990Z,11.30
2022-11-11T16:33:06.845Z,11.33
2022-11-11T16:35:55.282Z,11.30
2022-11-11T16:38:45.012Z,11.30
2022-11-11T16:41:34.165Z,11.29
2022-11-11T16:44:36.306Z,11.25
2022-11-11T16:47:35.593Z,11.31
2022-11-11T16:50:25.886Z,11.22
2022-11-11T16:53:16.537Z,11.12
2022-11-11T16:56:05.475Z,11.08
2022-11-11T16:58:58.470Z,10.96
2022-11-11T17:01:47.368Z,11.00
2022-11-11T17:04:49.568Z,10.89
2022-11-11T17:07:39.361Z,10.79
2022-11-11T17:10:34.885Z,10.80
2022-11-11T17:13:24.107Z,10.87
2022-11-11T17:16:13.906Z,10.90
2022-11-11T17:19:03.593Z,10.96
2022-11-11T17:21:52.376Z,11.08
2022-11-11T17:24:41.195Z,11.04
2022-11-11T17:27:32.557Z,11.11
2022-11-11T17:30:21.996Z,11.07
2022-11-11T17:33:10.767Z,11.09
2022-11-11T17:36:01.426Z,11.08
2022-11-11T17:38:50.310Z,11.06
2022-11-11T17:41:39.188Z,11.08
2022-11-11T17:44:27.925Z,11.10
2022-11-11T17:47:16.533Z,11.14
2022-11-11T17:50:05.265Z,11.11
2022-11-11T17:52:55.663Z,11.17
2022-11-11T17:55:44.974Z,11.05
2022-11-11T17:58:39.803Z,11.02
2022-11-11T18:01:24.469Z,11.03
2022-11-11T18:04:14.235Z,11.06
2022-11-11T18:07:03.317Z,11.07
2022-11-11T18:09:52.115Z,11.05
2022-11-11T18:12:42.071Z,11.15
2022-11-11T18:15:30.693Z,11.13
2022-11-11T18:18:19.531Z,11.14
2022-11-11T18:21:08.977Z,11.13
2022-11-11T18:23:58.359Z,11.19
2022-11-11T18:26:46.802Z,11.18
2022-11-11T18:29:35.990Z,11.20
2022-11-11T18:32:24.748Z,11.21
2022-11-11T18:35:13.588Z,11.23
2022-11-11T18:38:02.235Z,11.16
2022-11-11T18:40:50.766Z,11.25
2022-11-11T18:43:41.000Z,11.21
2022-11-11T18:46:32.257Z,11.19
2022-11-11T18:49:21.054Z,11.20
2022-11-11T18:52:09.517Z,11.15
2022-11-11T18:54:58.468Z,11.21
2022-11-11T18:57:47.180Z,11.14
2022-11-11T19:00:36.230Z,11.14
2022-11-11T19:03:25.122Z,11.15
2022-11-11T19:06:13.911Z,11.16
2022-11-11T19:09:10.341Z,11.10
2022-11-11T19:11:58.957Z,11.13
2022-11-11T19:14:47.405Z,11.15
2022-11-11T19:17:36.123Z,11.11
2022-11-11T19:20:24.864Z,11.11
2022-11-11T19:23:13.764Z,11.09
2022-11-11T19:26:02.619Z,11.06
2022-11-11T19:28:51.345Z,11.11
2022-11-11T19:31:40.044Z,11.09
2022-11-11T19:34:28.826Z,11.12
2022-11-11T19:37:19.265Z,11.08
2022-11-11T19:40:08.444Z,10.96
2022-11-11T19:42:56.996Z,10.96
2022-11-11T19:45:46.224Z,10.91
2022-11-11T19:48:35.252Z,10.87
2022-11-11T19:51:25.097Z,10.85
2022-11-11T19:54:14.105Z,10.87
2022-11-11T19:57:02.959Z,10.92
2022-11-11T19:59:52.034Z,10.93
2022-11-11T20:02:40.932Z,10.91
2022-11-11T20:05:29.724Z,10.93
2022-11-11T20:08:18.403Z,10.98
2022-11-11T20:11:08.481Z,11.03
2022-11-11T20:13:57.252Z,11.03
2022-11-11T20:16:45.934Z,11.01
2022-11-11T20:19:34.686Z,10.98
2022-11-11T20:22:23.901Z,10.99
2022-11-11T20:25:12.791Z,10.95
2022-11-11T20:28:01.265Z,10.93
2022-11-11T20:30:50.193Z,10.94
2022-11-11T20:33:38.983Z,10.94
2022-11-11T20:36:27.803Z,10.89
2022-11-11T20:39:16.496Z,10.79
2022-11-11T20:42:05.387Z,10.71
2022-11-11T20:44:54.242Z,10.60
2022-11-11T20:47:42.928Z,10.58
2022-11-11T20:50:31.665Z,10.48
2022-11-11T20:53:20.472Z,10.46
2022-11-11T20:56:10.334Z,10.31
2022-11-11T20:58:59.503Z,10.24
2022-11-11T21:01:48.360Z,10.20
2022-11-11T21:04:37.199Z,10.13
2022-11-11T21:07:25.620Z,10.11
2022-11-11T21:10:14.415Z,10.09
2022-11-11T21:13:02.917Z,10.08
2022-11-11T21:15:51.981Z,10.00
2022-11-11T21:18:40.899Z,10.09
2022-11-11T21:21:31.187Z,10.02
2022-11-11T21:24:19.864Z,10.05
2022-11-11T21:27:08.382Z,10.09
2022-11-11T21:29:57.143Z,10.05
2022-11-11T21:32:45.704Z,10.02
2022-11-11T21:35:34.361Z,10.05
2022-11-11T21:38:23.578Z,10.01
2022-11-11T21:41:13.625Z,9.99
2022-11-11T21:44:02.141Z,10.05
2022-11-11T21:46:50.636Z,10.08
2022-11-11T21:49:39.104Z,10.05
2022-11-11T21:52:28.001Z,10.07
2022-11-11T21:55:16.605Z,10.05
2022-11-11T21:58:05.024Z,10.07
2022-11-11T22:00:53.539Z,10.07
2022-11-11T22:03:42.539Z,10.13
2022-11-11T22:06:31.323Z,10.17
2022-11-11T22:09:20.210Z,10.12
2022-11-11T22:12:08.864Z,10.18
2022-11-11T22:14:57.735Z,10.18
2022-11-11T22:17:46.526Z,10.27
2022-11-11T22:20:35.267Z,10.39
2022-11-11T22:23:24.122Z,10.53
2022-11-11T22:26:12.587Z,10.43
2022-11-11T22:29:01.027Z,10.46
2022-11-11T22:31:49.422Z,10.56
2022-11-11T22:34:38.092Z,10.58
2022-11-11T22:37:26.748Z,10.58
2022-11-11T22:40:15.436Z,10.66
2022-11-11T22:43:04.060Z,10.70
2022-11-11T22:45:57.504Z,10.69
2022-11-11T22:48:53.692Z,10.77
2022-11-11T22:51:44.475Z,10.75
2022-11-11T22:54:33.144Z,10.75
2022-11-11T22:57:23.062Z,10.78
2022-11-11T23:00:12.067Z,10.81
2022-11-11T23:03:00.710Z,10.86
2022-11-11T23:05:49.286Z,10.79
2022-11-11T23:08:38.335Z,10.81
2022-11-11T23:11:28.159Z,10.84
2022-11-11T23:14:16.948Z,10.85
2022-11-11T23:17:05.856Z,10.89
2022-11-11T23:19:54.563Z,10.84
2022-11-11T23:22:43.267Z,10.80
2022-11-11T23:25:33.757Z,10.73
2022-11-11T23:28:23.272Z,10.73
2022-11-11T23:31:13.590Z,10.72
2022-11-11T23:34:02.761Z,10.68
2022-11-11T23:36:51.384Z,10.64
2022-11-11T23:39:39.786Z,10.55
2022-11-11T23:42:28.185Z,10.49
2022-11-11T23:45:16.986Z,10.43
2022-11-11T23:48:05.449Z,10.42
2022-11-11T23:50:54.270Z,10.41
2022-11-11T23:53:42.666Z,10.40
2022-11-11T23:56:31.182Z,10.53
2022-11-11T23:59:19.620Z,10.50
